Time;durP1;ratioP1;P1;durP2;ratioP2;P2;SDS_P1;SDS_P2;PMS_P1;PMS_P2;Temp;Humidity;BMP_temperature;BMP_pressure;BME280_temperature;BME280_humidity;BME280_pressure;Samples;Min_cycle;Max_cycle;Signal;HPM_P1;HPM_P2
2023/03/03 00:01:33;;;;;;;0.70;0.70;;;;;;;-3.01;100.00;97888.16;4751005;30;20052;-81
2023/03/03 00:04:00;;;;;;;0.73;0.73;;;;;;;-2.96;100.00;97874.38;4769543;29;20075;-81
2023/03/03 00:06:28;;;;;;;0.65;0.65;;;;;;;-2.92;100.00;97865.09;4785277;30;20401;-82
2023/03/03 00:08:56;;;;;;;1.00;1.00;;;;;;;-2.86;100.00;97854.63;4769319;30;20048;-81
2023/03/03 00:11:23;;;;;;;0.90;0.90;;;;;;;-2.84;100.00;97849.13;4769054;30;20515;-81
2023/03/03 00:13:54;;;;;;;0.70;0.70;;;;;;;-2.79;99.85;97853.84;4769094;30;20100;-81
2023/03/03 00:16:24;;;;;;;0.90;0.90;;;;;;;-2.79;99.63;97853.84;4785336;30;20066;-81
2023/03/03 00:18:52;;;;;;;0.70;0.70;;;;;;;-2.78;99.64;97866.06;4768765;30;20087;-81
2023/03/03 00:21:38;;;;;;;0.80;0.80;;;;;;;-2.75;99.54;97852.50;4785332;30;20051;-81
2023/03/03 00:24:22;;;;;;;0.68;0.68;;;;;;;-2.72;99.35;97850.28;4754474;30;20051;-81
2023/03/03 00:26:54;;;;;;;1.08;1.08;;;;;;;-2.72;99.32;97858.19;4784839;30;20059;-81
2023/03/03 00:29:40;;;;;;;0.70;0.70;;;;;;;-2.69;99.30;97855.19;4785196;30;20525;-81
2023/03/03 00:32:24;;;;;;;0.63;0.63;;;;;;;-2.71;99.32;97846.66;4784702;30;20138;-82
2023/03/03 00:34:55;;;;;;;0.80;0.80;;;;;;;-2.70;99.28;97834.25;4785135;30;20133;-80
2023/03/03 00:37:28;;;;;;;0.80;0.80;;;;;;;-2.65;99.51;97834.50;4754545;30;20085;-81
2023/03/03 00:40:10;;;;;;;0.90;0.90;;;;;;;-2.64;99.47;97838.78;4784560;30;20515;-81
2023/03/03 00:42:38;;;;;;;0.95;0.95;;;;;;;-2.57;99.42;97844.13;4768985;30;20143;-80
2023/03/03 00:45:27;;;;;;;0.90;0.90;;;;;;;-2.49;99.11;97839.53;4784594;30;20083;-81
2023/03/03 00:47:55;;;;;;;0.90;0.90;;;;;;;-2.48;98.98;97838.53;4768819;30;20062;-81
2023/03/03 00:50:29;;;;;;;0.90;0.90;;;;;;;-2.45;99.11;97824.94;4784643;30;20055;-81
2023/03/03 00:53:04;;;;;;;0.80;0.80;;;;;;;-2.42;98.80;97823.72;4767240;30;20055;-82
2023/03/03 00:55:33;;;;;;;1.00;1.00;;;;;;;-2.41;98.93;97814.78;4736507;30;20464;-80
2023/03/03 00:58:00;;;;;;;0.80;0.80;;;;;;;-2.38;98.95;97811.78;4766428;30;20109;-80
2023/03/03 01:00:32;;;;;;;0.70;0.70;;;;;;;-2.38;99.22;97813.59;4766368;29;20072;-81
2023/03/03 01:03:04;;;;;;;0.80;0.80;;;;;;;-2.42;99.68;97808.69;4766549;30;20059;-81
2023/03/03 01:05:31;;;;;;;0.90;0.90;;;;;;;-2.42;100.00;97807.88;4750903;30;20063;-81
2023/03/03 01:07:58;;;;;;;0.80;0.80;;;;;;;-2.38;100.00;97809.16;4750472;30;20058;-81
2023/03/03 01:10:28;;;;;;;0.82;0.82;;;;;;;-2.39;100.00;97796.91;4750933;30;20056;-81
2023/03/03 01:12:56;;;;;;;0.88;0.88;;;;;;;-2.34;100.00;97807.72;4769095;30;20064;-82
2023/03/03 01:15:23;;;;;;;0.73;0.73;;;;;;;-2.36;100.00;97796.53;4754209;30;20404;-80
2023/03/03 01:17:50;;;;;;;0.70;0.70;;;;;;;-2.31;100.00;97801.25;4769961;30;20508;-80
2023/03/03 01:20:18;;;;;;;0.70;0.70;;;;;;;-2.30;100.00;97806.34;4769638;30;20051;-81
2023/03/03 01:22:45;;;;;;;0.80;0.80;;;;;;;-2.34;100.00;97794.53;4754310;30;20138;-81
2023/03/03 01:25:12;;;;;;;0.80;0.80;;;;;;;-2.38;100.00;97792.44;4768909;30;20079;-81
2023/03/03 01:27:39;;;;;;;0.70;0.70;;;;;;;-2.40;100.00;97784.72;4753963;30;20078;-81
2023/03/03 01:30:08;;;;;;;0.77;0.77;;;;;;;-2.35;100.00;97786.81;4769753;30;20055;-81
2023/03/03 01:32:35;;;;;;;0.85;0.85;;;;;;;-2.37;100.00;97778.25;4768429;30;20408;-81
2023/03/03 01:35:02;;;;;;;0.77;0.77;;;;;;;-2.35;100.00;97787.63;4778091;30;20533;-80
2023/03/03 01:37:29;;;;;;;0.70;0.70;;;;;;;-2.33;100.00;97784.75;4771726;30;20098;-81
2023/03/03 01:40:21;;;;;;;0.80;0.80;;;;;;;-2.30;100.00;97768.53;4787093;30;20062;-81
2023/03/03 01:42:48;;;;;;;0.90;0.90;;;;;;;-2.31;100.00;97778.28;4771773;30;20082;-81
2023/03/03 01:45:38;;;;;;;0.90;0.90;;;;;;;-2.28;100.00;97772.63;4787864;30;20055;-81
2023/03/03 01:48:09;;;;;;;0.80;0.80;;;;;;;-2.28;100.00;97770.00;4768330;30;20052;-81
2023/03/03 01:50:40;;;;;;;0.63;0.63;;;;;;;-2.20;100.00;97772.47;4769604;30;20154;-81
2023/03/03 01:53:13;;;;;;;0.90;0.90;;;;;;;-2.13;100.00;97776.97;4753315;30;20082;-82
2023/03/03 01:55:41;;;;;;;0.93;0.93;;;;;;;-2.08;100.00;97771.94;4739062;30;20146;-81
2023/03/03 01:58:13;;;;;;;0.82;0.82;;;;;;;-2.06;100.00;97769.91;4764577;30;20055;-81
2023/03/03 02:00:44;;;;;;;0.93;0.93;;;;;;;-2.03;99.64;97769.50;4753481;30;20059;-81
2023/03/03 02:03:11;;;;;;;0.68;0.68;;;;;;;-2.05;99.30;97756.50;4739326;30;20070;-81
2023/03/03 02:05:39;;;;;;;0.80;0.80;;;;;;;-2.03;99.17;97761.59;4753678;30;20430;-81
2023/03/03 02:08:08;;;;;;;0.90;0.90;;;;;;;-2.05;99.31;97755.66;4767975;30;20142;-81
2023/03/03 02:10:35;;;;;;;0.90;0.90;;;;;;;-2.06;99.21;97759.34;4753175;30;20641;-81
2023/03/03 02:13:04;;;;;;;0.80;0.80;;;;;;;-2.02;99.25;97768.53;4768863;30;20832;-81
2023/03/03 02:15:34;;;;;;;0.88;0.88;;;;;;;-2.04;99.08;97757.31;4769092;30;20512;-80
2023/03/03 02:18:05;;;;;;;0.80;0.80;;;;;;;-2.05;99.17;97750.38;4752616;30;20125;-81
2023/03/03 02:20:44;;;;;;;0.80;0.80;;;;;;;-2.02;99.12;97755.31;4786729;30;20059;-81
2023/03/03 02:23:35;;;;;;;0.60;0.60;;;;;;;-2.00;98.82;97737.38;4786000;29;20454;-80
2023/03/03 02:26:05;;;;;;;0.88;0.88;;;;;;;-2.03;98.45;97728.03;4770340;30;20154;-81
2023/03/03 02:28:34;;;;;;;0.82;0.82;;;;;;;-2.08;98.72;97729.63;4756040;30;20457;-81
2023/03/03 02:31:11;;;;;;;0.80;0.80;;;;;;;-2.10;99.39;97729.00;4770742;30;20059;-81
2023/03/03 02:33:45;;;;;;;0.90;0.90;;;;;;;-2.14;99.70;97730.41;4770574;30;20070;-81
2023/03/03 02:36:21;;;;;;;0.70;0.70;;;;;;;-2.16;100.00;97727.16;4801249;29;20067;-81
2023/03/03 02:39:11;;;;;;;0.90;0.90;;;;;;;-2.16;100.00;97716.56;4804574;29;20058;-81
2023/03/03 02:41:59;;;;;;;0.70;0.70;;;;;;;-2.19;100.00;97710.66;4793452;29;20058;-81
2023/03/03 02:44:34;;;;;;;0.80;0.80;;;;;;;-2.16;100.00;97711.28;4776499;30;20695;-81
2023/03/03 02:47:01;;;;;;;0.90;0.90;;;;;;;-2.18;100.00;97724.69;4770535;30;20055;-81
2023/03/03 02:49:31;;;;;;;0.80;0.80;;;;;;;-2.18;100.00;97714.13;4786769;30;20063;-80
2023/03/03 02:51:59;;;;;;;0.65;0.65;;;;;;;-2.22;100.00;97713.69;4786099;30;20576;-81
2023/03/03 02:54:29;;;;;;;0.75;0.75;;;;;;;-2.23;100.00;97706.78;4786511;29;20110;-81
2023/03/03 02:56:58;;;;;;;0.70;0.70;;;;;;;-2.21;100.00;97694.16;4770172;30;20057;-80
2023/03/03 02:59:26;;;;;;;0.80;0.80;;;;;;;-2.22;100.00;97700.47;4770474;30;20108;-81
2023/03/03 03:01:54;;;;;;;0.80;0.80;;;;;;;-2.26;100.00;97704.50;4770004;30;20503;-80
2023/03/03 03:04:23;;;;;;;0.70;0.70;;;;;;;-2.29;100.00;97710.19;4770079;30;20047;-80
2023/03/03 03:06:52;;;;;;;0.82;0.82;;;;;;;-2.35;100.00;97716.25;4785576;30;20062;-81
2023/03/03 03:09:21;;;;;;;0.63;0.63;;;;;;;-2.38;100.00;97702.59;4770058;30;20058;-82
2023/03/03 03:11:50;;;;;;;0.85;0.85;;;;;;;-2.37;100.00;97702.44;4769708;30;20047;-80
2023/03/03 03:14:20;;;;;;;0.70;0.70;;;;;;;-2.37;100.00;97691.84;4786043;30;20422;-81
2023/03/03 03:16:47;;;;;;;0.85;0.85;;;;;;;-2.39;100.00;97699.16;4785541;30;20108;-80
2023/03/03 03:19:14;;;;;;;0.80;0.80;;;;;;;-2.41;100.00;97694.06;4769957;30;20062;-81
2023/03/03 03:21:43;;;;;;;0.70;0.70;;;;;;;-2.41;100.00;97696.69;4769956;30;20082;-80
2023/03/03 03:24:10;;;;;;;0.70;0.70;;;;;;;-2.38;100.00;97692.03;4769576;30;20056;-81
2023/03/03 03:26:42;;;;;;;0.90;0.90;;;;;;;-2.36;100.00;97704.03;4768238;30;20052;-82
2023/03/03 03:29:09;;;;;;;0.82;0.82;;;;;;;-2.36;100.00;97688.19;4784830;30;20051;-81
2023/03/03 03:31:38;;;;;;;0.73;0.73;;;;;;;-2.33;100.00;97693.13;4768978;30;20060;-81
2023/03/03 03:34:05;;;;;;;0.75;0.75;;;;;;;-2.33;100.00;97690.47;4784914;29;20081;-82
2023/03/03 03:36:32;;;;;;;0.90;0.90;;;;;;;-2.35;100.00;97684.56;4783596;30;20055;-79
2023/03/03 03:39:01;;;;;;;0.90;0.90;;;;;;;-2.32;100.00;97686.00;4754961;30;20120;-79
2023/03/03 03:41:29;;;;;;;0.90;0.90;;;;;;;-2.29;100.00;97694.34;4763162;30;20089;-81
2023/03/03 03:43:56;;;;;;;0.90;0.90;;;;;;;-2.31;100.00;97692.91;4769427;30;20568;-80
2023/03/03 03:46:23;;;;;;;0.70;0.70;;;;;;;-2.31;100.00;97679.69;4785534;30;20236;-81
2023/03/03 03:48:51;;;;;;;0.77;0.77;;;;;;;-2.30;100.00;97674.22;4768556;29;20051;-80
2023/03/03 03:51:20;;;;;;;0.60;0.60;;;;;;;-2.27;100.00;97673.81;4784971;30;20067;-80
2023/03/03 03:53:47;;;;;;;0.82;0.82;;;;;;;-2.25;100.00;97687.66;4768848;30;20127;-78
2023/03/03 03:56:14;;;;;;;0.80;0.80;;;;;;;-2.24;100.00;97693.75;4769359;30;20156;-81
2023/03/03 03:58:43;;;;;;;0.70;0.70;;;;;;;-2.23;100.00;97687.44;4436442;30;10000322;-84
2023/03/03 04:01:13;;;;;;;0.90;0.90;;;;;;;-2.23;100.00;97680.34;4759175;30;20063;-81
2023/03/03 04:03:45;;;;;;;0.70;0.70;;;;;;;-2.28;100.00;97666.91;4746715;30;20052;-82
2023/03/03 04:06:16;;;;;;;0.75;0.75;;;;;;;-2.31;100.00;97672.56;4754330;30;20138;-82
2023/03/03 04:08:43;;;;;;;0.90;0.90;;;;;;;-2.31;100.00;97664.63;4759384;30;20065;-82
2023/03/03 04:11:11;;;;;;;0.80;0.80;;;;;;;-2.35;100.00;97654.69;4756442;30;20065;-84
2023/03/03 04:13:40;;;;;;;0.70;0.70;;;;;;;-2.31;100.00;97662.00;4763208;30;20480;-82
2023/03/03 04:16:14;;;;;;;0.80;0.80;;;;;;;-2.30;100.00;97661.00;4742134;30;20054;-82
2023/03/03 04:18:49;;;;;;;0.70;0.70;;;;;;;-2.28;100.00;97661.63;4766202;30;20116;-80
2023/03/03 04:21:21;;;;;;;0.95;0.95;;;;;;;-2.26;100.00;97664.06;4731780;30;20501;-83
2023/03/03 04:23:57;;;;;;;0.70;0.70;;;;;;;-2.30;100.00;97655.72;4765625;30;20055;-81
2023/03/03 04:26:30;;;;;;;0.70;0.70;;;;;;;-2.30;100.00;97653.06;4774617;30;20515;-82
2023/03/03 04:29:07;;;;;;;0.90;0.90;;;;;;;-2.30;100.00;97658.34;4769392;30;20055;-83
2023/03/03 04:31:42;;;;;;;1.00;1.00;;;;;;;-2.28;100.00;97656.34;4747339;30;20055;-82
2023/03/03 04:34:14;;;;;;;0.90;0.90;;;;;;;-2.30;100.00;97653.06;4780666;30;20055;-83
2023/03/03 04:37:02;;;;;;;0.77;0.77;;;;;;;-2.30;100.00;97654.91;4749601;30;20052;-82
2023/03/03 04:39:34;;;;;;;0.80;0.80;;;;;;;-2.32;100.00;97652.44;4751643;30;20052;-83
2023/03/03 04:42:03;;;;;;;0.98;0.98;;;;;;;-2.29;100.00;97657.34;4737520;30;20090;-83
2023/03/03 04:44:42;;;;;;;0.70;0.70;;;;;;;-2.31;100.00;97656.72;4763411;30;20058;-82
2023/03/03 04:47:17;;;;;;;0.98;0.98;;;;;;;-2.25;100.00;97648.03;4779006;29;20144;-82
2023/03/03 04:49:45;;;;;;;0.75;0.75;;;;;;;-2.25;100.00;97658.59;4781967;30;20112;-82
2023/03/03 04:52:17;;;;;;;0.75;0.75;;;;;;;-2.24;100.00;97654.94;4752252;30;20065;-81
2023/03/03 04:54:45;;;;;;;0.90;0.90;;;;;;;-2.23;100.00;97653.94;4763057;30;20059;-81
2023/03/03 04:57:29;;;;;;;0.70;0.70;;;;;;;-2.20;100.00;97664.09;4764141;30;20154;-83
2023/03/03 05:00:15;;;;;;;0.80;0.80;;;;;;;-2.17;100.00;97667.38;4751837;30;20068;-82
2023/03/03 05:02:55;;;;;;;0.80;0.80;;;;;;;-2.15;100.00;97674.09;4736771;30;20535;-84
2023/03/03 05:05:33;;;;;;;0.80;0.80;;;;;;;-2.14;100.00;97669.63;4750371;30;20079;-83
2023/03/03 05:08:04;;;;;;;0.90;0.90;;;;;;;-2.09;100.00;97668.00;4775310;30;20054;-82
2023/03/03 05:10:54;;;;;;;0.70;0.70;;;;;;;-2.05;100.00;97655.19;4754144;30;20167;-82
2023/03/03 05:13:28;;;;;;;1.10;1.10;;;;;;;-2.04;100.00;97662.13;4765718;30;20808;-82
2023/03/03 05:15:58;;;;;;;1.00;1.00;;;;;;;-2.05;99.93;97671.06;4737048;30;20059;-84
2023/03/03 05:18:34;;;;;;;0.75;0.75;;;;;;;-2.03;99.55;97666.41;4757917;30;20147;-84
2023/03/03 05:21:01;;;;;;;0.70;0.70;;;;;;;-2.05;99.42;97652.56;4766159;30;20515;-83
2023/03/03 05:23:28;;;;;;;1.00;1.00;;;;;;;-2.02;99.31;97663.56;4762753;30;20150;-86
2023/03/03 05:25:55;;;;;;;0.88;0.88;;;;;;;-1.96;99.05;97676.00;4779147;30;20572;-83
2023/03/03 05:28:22;;;;;;;1.00;1.00;;;;;;;-1.96;98.72;97667.25;4785591;30;20061;-84
2023/03/03 05:30:54;;;;;;;0.70;0.70;;;;;;;-1.96;98.66;97664.59;4774692;30;20093;-83
2023/03/03 05:33:21;;;;;;;0.90;0.90;;;;;;;-2.01;98.54;97659.91;4781908;30;20075;-84
2023/03/03 05:35:53;;;;;;;0.90;0.90;;;;;;;-1.95;98.25;97660.94;4780495;29;20061;-85
2023/03/03 05:38:20;;;;;;;0.90;0.90;;;;;;;-1.93;97.94;97664.22;4785089;30;20069;-84
2023/03/03 05:40:47;;;;;;;1.00;1.00;;;;;;;-1.92;97.48;97667.66;4785839;29;20138;-84
2023/03/03 05:43:14;;;;;;;0.88;0.88;;;;;;;-1.92;97.31;97663.22;4765079;30;20469;-84
2023/03/03 05:45:41;;;;;;;0.90;0.90;;;;;;;-1.88;97.11;97661.78;4765239;30;20086;-84
2023/03/03 05:48:09;;;;;;;0.88;0.88;;;;;;;-1.84;96.83;97678.91;4764580;30;20540;-84
2023/03/03 05:50:36;;;;;;;0.90;0.90;;;;;;;-1.85;96.51;97672.00;4765370;30;20048;-84
2023/03/03 05:53:03;;;;;;;0.77;0.77;;;;;;;-1.84;96.17;97670.97;4765455;30;20651;-83
2023/03/03 05:55:31;;;;;;;0.90;0.90;;;;;;;-1.86;95.51;97678.28;4765288;30;20062;-84
2023/03/03 05:57:58;;;;;;;0.95;0.95;;;;;;;-1.88;95.80;97666.25;4750477;30;20121;-83
2023/03/03 06:00:25;;;;;;;0.82;0.82;;;;;;;-1.84;95.95;97667.50;4767559;30;20064;-84
2023/03/03 06:02:52;;;;;;;0.85;0.85;;;;;;;-1.80;95.87;97674.84;4767578;30;20423;-84
2023/03/03 06:05:19;;;;;;;0.90;0.90;;;;;;;-1.84;95.40;97673.63;4768535;30;20055;-84
2023/03/03 06:07:46;;;;;;;0.70;0.70;;;;;;;-1.75;95.09;97667.16;4768454;30;20079;-85
2023/03/03 06:10:13;;;;;;;0.90;0.90;;;;;;;-1.66;94.71;97680.19;4753089;30;20055;-84
2023/03/03 06:12:45;;;;;;;1.00;1.00;;;;;;;-1.55;93.60;97676.94;4752423;30;20071;-84
2023/03/03 06:15:12;;;;;;;1.00;1.00;;;;;;;-1.46;92.81;97681.06;4785080;30;20063;-84
2023/03/03 06:17:39;;;;;;;0.95;0.95;;;;;;;-1.33;92.47;97670.50;4787584;30;20055;-83
2023/03/03 06:20:06;;;;;;;0.90;0.90;;;;;;;-1.33;91.72;97681.06;4787336;30;20059;-84
2023/03/03 06:22:33;;;;;;;1.00;1.00;;;;;;;-1.36;91.50;97678.03;4787508;30;20056;-83
2023/03/03 06:25:00;;;;;;;1.00;1.00;;;;;;;-1.41;91.32;97677.81;4787375;30;20109;-83
2023/03/03 06:27:29;;;;;;;0.70;0.70;;;;;;;-1.42;90.83;97678.81;4786640;30;20055;-84
2023/03/03 06:29:56;;;;;;;1.30;1.20;;;;;;;-1.37;90.85;97679.03;4785118;30;20511;-82
2023/03/03 06:32:23;;;;;;;1.00;1.00;;;;;;;-1.36;90.57;97676.19;4787253;30;20591;-82
2023/03/03 06:34:50;;;;;;;0.85;0.85;;;;;;;-1.40;90.06;97669.66;4769052;30;20055;-83
2023/03/03 06:37:17;;;;;;;1.00;1.00;;;;;;;-1.45;90.07;97677.38;4786685;30;20735;-83
2023/03/03 06:39:44;;;;;;;0.70;0.70;;;;;;;-1.44;90.16;97679.03;4787603;29;20077;-83
2023/03/03 06:42:11;;;;;;;0.80;0.80;;;;;;;-1.43;89.59;97682.50;4775012;30;20079;-84
2023/03/03 06:44:38;;;;;;;1.00;1.00;;;;;;;-1.40;89.61;97682.88;4769142;30;20516;-83
2023/03/03 06:47:05;;;;;;;0.90;0.90;;;;;;;-1.39;88.78;97689.84;4775553;30;20056;-83
2023/03/03 06:49:32;;;;;;;0.88;0.88;;;;;;;-1.44;88.47;97680.84;4780402;30;20060;-82
2023/03/03 06:52:04;;;;;;;0.70;0.70;;;;;;;-1.40;88.59;97677.59;4784507;30;20055;-83
2023/03/03 06:54:31;;;;;;;0.68;0.68;;;;;;;-1.37;88.48;97682.50;4766328;30;20059;-84
2023/03/03 06:57:00;;;;;;;0.77;0.77;;;;;;;-1.33;88.23;97683.72;4788128;30;20061;-84
2023/03/03 06:59:27;;;;;;;0.90;0.90;;;;;;;-1.33;88.03;97674.97;4771728;30;20483;-82
2023/03/03 07:01:55;;;;;;;0.75;0.75;;;;;;;-1.32;87.38;97687.19;4786897;30;20059;-84
2023/03/03 07:04:32;;;;;;;1.00;1.00;;;;;;;-1.30;86.87;97687.81;4786951;30;20075;-83
2023/03/03 07:07:10;;;;;;;0.80;0.80;;;;;;;-1.32;86.52;97682.72;4786894;30;20093;-84
2023/03/03 07:09:37;;;;;;;0.90;0.90;;;;;;;-1.26;86.40;97669.69;4786323;29;20118;-82
2023/03/03 07:12:09;;;;;;;1.00;1.00;;;;;;;-1.21;85.56;97678.66;4786577;30;20459;-83
2023/03/03 07:14:41;;;;;;;0.90;0.90;;;;;;;-1.16;85.04;97680.72;4770707;30;20051;-83
2023/03/03 07:17:15;;;;;;;0.93;0.93;;;;;;;-1.12;84.59;97685.38;4785975;30;20512;-83
2023/03/03 07:19:43;;;;;;;0.90;0.90;;;;;;;-1.06;84.35;97678.47;4770544;30;20154;-84
2023/03/03 07:22:13;;;;;;;0.80;0.80;;;;;;;-1.01;84.17;97676.03;4770145;30;20061;-83
2023/03/03 07:24:41;;;;;;;0.80;0.80;;;;;;;-1.00;84.05;97679.50;4770557;30;20067;-82
2023/03/03 07:27:31;;;;;;;0.98;0.98;;;;;;;-0.96;83.62;97686.00;4786258;30;20055;-83
2023/03/03 07:30:23;;;;;;;0.80;0.80;;;;;;;-1.03;83.23;97680.72;4713068;30;20052;-83
2023/03/03 07:32:56;;;;;;;1.10;1.10;;;;;;;-1.08;83.39;97685.00;4694757;30;20100;-83
2023/03/03 07:35:40;;;;;;;0.80;0.80;;;;;;;-1.09;83.53;97681.50;4713040;30;20084;-83
2023/03/03 07:38:12;;;;;;;0.80;0.80;;;;;;;-1.06;83.51;97686.44;4696062;30;20062;-83
2023/03/03 07:40:47;;;;;;;0.90;0.90;;;;;;;-1.04;83.81;97688.84;4695459;30;20452;-83
2023/03/03 07:43:49;;;;;;;0.82;0.82;;;;;;;-1.06;83.68;97694.38;4695771;30;20459;-83
2023/03/03 07:46:49;;;;;;;0.90;0.90;;;;;;;-1.03;83.86;97688.66;4695869;30;20505;-82
2023/03/03 07:49:35;;;;;;;1.05;1.05;;;;;;;-1.10;83.63;97693.13;4667788;30;20058;-84
2023/03/03 07:52:24;;;;;;;0.90;0.90;;;;;;;-1.08;83.53;97682.34;4680357;30;20426;-83
2023/03/03 07:54:52;;;;;;;0.80;0.80;;;;;;;-1.10;83.82;97701.06;4679031;30;20062;-84
2023/03/03 07:57:20;;;;;;;0.95;0.95;;;;;;;-1.04;84.01;97689.66;4678483;30;20150;-83
2023/03/03 07:59:50;;;;;;;1.08;1.08;;;;;;;-0.93;83.82;97691.72;4678276;30;20069;-85
2023/03/03 08:02:26;;;;;;;1.00;1.00;;;;;;;-0.88;83.29;97697.22;4664093;30;20065;-83
2023/03/03 08:04:53;;;;;;;1.00;1.00;;;;;;;-0.97;83.63;97689.69;4677773;30;20153;-83
2023/03/03 08:07:22;;;;;;;0.77;0.77;;;;;;;-0.94;83.73;97695.41;4710667;30;20060;-84
2023/03/03 08:09:59;;;;;;;0.80;0.80;;;;;;;-0.85;83.76;97700.50;4729844;30;20060;-83
2023/03/03 08:12:41;;;;;;;0.98;0.98;;;;;;;-0.85;84.08;97690.72;4730208;30;20596;-83
2023/03/03 08:15:28;;;;;;;1.10;1.10;;;;;;;-0.69;83.78;97697.44;4715426;30;20095;-83
2023/03/03 08:18:00;;;;;;;0.95;0.95;;;;;;;-0.49;83.44;97692.94;4745392;30;20497;-83
2023/03/03 08:20:28;;;;;;;1.05;1.05;;;;;;;-0.28;82.13;97691.91;4716641;30;20049;-84
2023/03/03 08:22:55;;;;;;;1.30;1.20;;;;;;;-0.06;81.17;97697.72;4731679;30;20095;-83
2023/03/03 08:25:22;;;;;;;1.10;1.10;;;;;;;0.06;80.22;97694.47;4739669;30;20474;-84
2023/03/03 08:27:49;;;;;;;1.10;1.10;;;;;;;0.08;78.51;97695.88;4767393;30;20111;-85
2023/03/03 08:30:16;;;;;;;1.10;1.10;;;;;;;0.21;78.85;97700.31;4770757;29;20058;-83
2023/03/03 08:32:43;;;;;;;1.17;1.17;;;;;;;0.21;77.45;97705.63;4785532;30;20531;-83
2023/03/03 08:35:10;;;;;;;1.00;1.00;;;;;;;0.13;77.09;97703.22;4787049;30;20055;-84
2023/03/03 08:37:37;;;;;;;1.00;1.00;;;;;;;0.10;76.82;97706.25;4788497;30;20055;-83
2023/03/03 08:40:05;;;;;;;1.05;1.05;;;;;;;0.05;76.78;97703.41;4786543;29;20138;-83
2023/03/03 08:42:32;;;;;;;0.90;0.90;;;;;;;0.08;76.70;97710.97;4786203;30;20055;-83
2023/03/03 08:44:59;;;;;;;0.90;0.90;;;;;;;-0.16;76.87;97688.59;4785100;30;20138;-84
2023/03/03 08:47:26;;;;;;;0.95;0.95;;;;;;;-0.19;77.46;97703.09;4785933;30;20124;-83
2023/03/03 08:49:53;;;;;;;1.00;1.00;;;;;;;-0.17;78.08;97701.03;4785363;30;20078;-83
2023/03/03 08:52:20;;;;;;;0.90;0.90;;;;;;;-0.07;77.84;97722.66;4769328;30;20142;-83
2023/03/03 08:54:47;;;;;;;1.10;1.10;;;;;;;-0.06;77.96;97713.66;4768608;30;20061;-83
2023/03/03 08:57:17;;;;;;;0.93;0.93;;;;;;;0.01;77.80;97710.19;4785823;30;20138;-83
2023/03/03 08:59:46;;;;;;;0.95;0.95;;;;;;;-0.05;77.90;97699.38;4784924;30;20051;-84
2023/03/03 09:02:13;;;;;;;0.90;0.90;;;;;;;0.13;77.63;97713.81;4784566;30;20461;-83
2023/03/03 09:04:40;;;;;;;1.00;1.00;;;;;;;0.15;77.00;97712.59;4785439;30;20051;-82
2023/03/03 09:07:08;;;;;;;1.10;1.10;;;;;;;0.19;76.81;97719.09;4784665;30;20495;-83
2023/03/03 09:09:36;;;;;;;1.02;1.02;;;;;;;0.17;76.49;97712.38;4784857;30;20048;-82
2023/03/03 09:12:16;;;;;;;1.02;1.02;;;;;;;0.18;75.81;97720.13;4768849;30;20055;-83
2023/03/03 09:14:43;;;;;;;1.10;1.10;;;;;;;0.32;75.21;97710.25;4769140;30;20051;-84
2023/03/03 09:17:34;;;;;;;1.00;1.00;;;;;;;0.48;74.88;97702.84;4784671;30;20511;-84
2023/03/03 09:20:35;;;;;;;1.00;1.00;;;;;;;0.48;73.25;97706.34;4773441;30;20200;-82
2023/03/03 09:23:24;;;;;;;1.00;1.00;;;;;;;0.50;73.32;97706.91;4781991;30;20108;-82
2023/03/03 09:25:52;;;;;;;1.10;1.10;;;;;;;0.48;72.97;97708.16;4779352;30;20063;-83
2023/03/03 09:28:30;;;;;;;1.00;1.00;;;;;;;0.52;73.19;97698.75;4783332;29;20075;-86
2023/03/03 09:31:00;;;;;;;1.02;1.02;;;;;;;0.53;73.60;97708.34;4768388;30;20090;-84
2023/03/03 09:33:44;;;;;;;1.00;1.00;;;;;;;0.55;73.45;97703.63;4784324;29;20059;-84
2023/03/03 09:36:36;;;;;;;1.00;1.00;;;;;;;0.62;73.66;97705.22;4439291;30;10000209;-84
2023/03/03 09:39:18;;;;;;;1.00;1.00;;;;;;;0.74;73.13;97709.88;4768697;30;20408;-83
2023/03/03 09:42:09;;;;;;;1.00;1.00;;;;;;;0.79;72.66;97713.53;4780431;29;20094;-82
2023/03/03 09:44:44;;;;;;;1.00;1.00;;;;;;;0.78;72.28;97706.56;4779794;30;20600;-83
2023/03/03 09:47:20;;;;;;;1.00;1.00;;;;;;;0.81;72.78;97719.44;4765507;30;20059;-83
2023/03/03 09:50:19;;;;;;;1.10;1.10;;;;;;;0.84;72.39;97712.88;4775434;30;20055;-84
2023/03/03 09:53:07;;;;;;;0.90;0.90;;;;;;;0.73;72.75;97716.19;4776340;30;20094;-85
2023/03/03 09:55:54;;;;;;;1.00;1.00;;;;;;;0.89;73.18;97720.19;4758838;30;20059;-83
2023/03/03 09:58:22;;;;;;;0.80;0.80;;;;;;;0.88;73.04;97718.56;4775633;30;20062;-83
2023/03/03 10:01:25;;;;;;;1.20;1.20;;;;;;;1.24;72.90;97717.91;4776062;30;20468;-83
2023/03/03 10:03:59;;;;;;;1.00;1.00;;;;;;;1.35;72.39;97697.81;4773337;30;20051;-82
2023/03/03 10:06:32;;;;;;;1.00;1.00;;;;;;;1.20;71.68;97709.56;4766649;30;20055;-83
2023/03/03 10:09:08;;;;;;;0.90;0.90;;;;;;;0.89;72.91;97710.41;4757484;30;20086;-82
2023/03/03 10:12:06;;;;;;;1.02;1.02;;;;;;;0.66;73.61;97705.63;4773359;30;20468;-82
2023/03/03 10:14:56;;;;;;;0.90;0.90;;;;;;;0.63;74.64;97708.69;4770046;30;20158;-82
2023/03/03 10:17:38;;;;;;;0.98;0.98;;;;;;;0.78;74.52;97701.25;4711409;30;20084;-84
2023/03/03 10:20:30;;;;;;;1.00;1.00;;;;;;;0.83;74.28;97698.75;4716713;30;20067;-85
2023/03/03 10:23:39;;;;;;;1.10;1.10;;;;;;;0.94;73.30;97693.78;4728528;30;20138;-85
2023/03/03 10:26:22;;;;;;;1.20;1.20;;;;;;;0.90;73.17;97701.41;4709055;30;20053;-83
2023/03/03 10:29:07;;;;;;;1.00;1.00;;;;;;;0.93;72.88;97705.47;4724637;30;20060;-82
2023/03/03 10:31:48;;;;;;;0.95;0.95;;;;;;;0.97;73.31;97688.06;4730461;30;20056;-83
2023/03/03 10:34:24;;;;;;;1.00;1.00;;;;;;;1.01;72.81;97694.56;4716523;30;20063;-85
2023/03/03 10:36:55;;;;;;;1.00;1.00;;;;;;;0.94;72.84;97701.75;4730240;30;20056;-85
2023/03/03 10:39:28;;;;;;;0.98;0.98;;;;;;;0.89;73.45;97698.94;4689792;30;20147;-84
2023/03/03 10:42:00;;;;;;;0.98;0.98;;;;;;;0.54;72.81;97702.81;4720205;30;20056;-85
2023/03/03 10:44:36;;;;;;;0.90;0.90;;;;;;;0.26;73.86;97691.72;4723253;30;20159;-82
2023/03/03 10:47:40;;;;;;;0.98;0.98;;;;;;;0.21;74.70;97700.31;4722537;30;20082;-83
2023/03/03 10:50:14;;;;;;;1.10;1.10;;;;;;;0.39;74.83;97697.78;4692180;30;20064;-84
2023/03/03 10:52:51;;;;;;;1.00;1.00;;;;;;;0.34;74.99;97697.59;4721386;30;20138;-83
2023/03/03 10:55:27;;;;;;;1.08;1.08;;;;;;;0.51;75.03;97702.44;4764015;30;20081;-85
2023/03/03 10:58:03;;;;;;;0.93;0.93;;;;;;;0.62;74.36;97710.53;4780940;30;20060;-84
2023/03/03 11:00:53;;;;;;;1.10;1.10;;;;;;;0.56;73.68;97711.41;4769199;30;20423;-83
2023/03/03 11:03:20;;;;;;;1.02;1.02;;;;;;;0.61;73.33;97700.16;4758738;30;20059;-84
2023/03/03 11:06:04;;;;;;;1.00;1.00;;;;;;;1.04;73.37;97700.28;4785249;30;20065;-84
2023/03/03 11:08:38;;;;;;;0.88;0.88;;;;;;;1.26;72.09;97702.56;4762265;30;20055;-83
2023/03/03 11:11:08;;;;;;;1.08;1.08;;;;;;;1.10;71.33;97698.59;4776617;30;20583;-84
2023/03/03 11:13:50;;;;;;;0.90;0.90;;;;;;;1.04;72.05;97704.78;4783194;30;20479;-84
2023/03/03 11:16:32;;;;;;;0.90;0.90;;;;;;;0.99;72.17;97701.97;4780775;30;20055;-84
2023/03/03 11:19:33;;;;;;;0.80;0.80;;;;;;;0.93;72.18;97702.81;4782540;29;20512;-84
2023/03/03 11:22:03;;;;;;;0.90;0.90;;;;;;;0.90;72.59;97695.28;4776396;30;20450;-83
2023/03/03 11:24:37;;;;;;;0.80;0.80;;;;;;;0.74;72.52;97708.03;4790046;30;20120;-84
2023/03/03 11:27:28;;;;;;;0.88;0.88;;;;;;;0.58;72.28;97704.03;4790659;30;20051;-83
2023/03/03 11:30:17;;;;;;;0.85;0.85;;;;;;;0.47;72.47;97706.53;4788663;30;20153;-83
2023/03/03 11:32:49;;;;;;;0.80;0.80;;;;;;;0.38;73.19;97696.16;4792392;29;20119;-84
2023/03/03 11:35:54;;;;;;;0.82;0.82;;;;;;;0.36;73.24;97700.88;4790852;29;20146;-83
2023/03/03 11:38:38;;;;;;;0.80;0.80;;;;;;;0.29;73.25;97700.06;4772231;30;20059;-83
2023/03/03 11:41:30;;;;;;;0.90;0.90;;;;;;;0.32;73.53;97697.00;4781096;30;20051;-84
2023/03/03 11:44:21;;;;;;;0.90;0.90;;;;;;;0.32;73.79;97699.66;4785963;30;20078;-83
2023/03/03 11:46:53;;;;;;;0.80;0.80;;;;;;;0.33;73.85;97706.59;4768003;30;20052;-84
2023/03/03 11:49:27;;;;;;;0.85;0.85;;;;;;;0.26;73.32;97700.50;4752610;30;20422;-83
2023/03/03 11:52:04;;;;;;;1.00;1.00;;;;;;;0.25;73.77;97706.00;4773678;30;20432;-84
2023/03/03 11:54:34;;;;;;;0.90;0.90;;;;;;;0.27;73.78;97702.13;4769665;29;20055;-82
2023/03/03 11:57:36;;;;;;;0.90;0.90;;;;;;;0.30;73.27;97708.84;4785797;30;20057;-83
2023/03/03 12:00:54;;;;;;;0.70;0.70;;;;;;;0.29;73.44;97715.19;4785461;30;20051;-83
2023/03/03 12:03:26;;;;;;;0.90;0.90;;;;;;;0.30;73.29;97711.50;4695349;30;20065;-83
2023/03/03 12:06:21;;;;;;;0.90;0.90;;;;;;;0.34;73.46;97702.09;4686739;30;20148;-83